Time;durP1;ratioP1;P1;durP2;ratioP2;P2;SDS_P1;SDS_P2;PMS_P1;PMS_P2;Temp;Humidity;BMP_temperature;BMP_pressure;BME280_temperature;BME280_humidity;BME280_pressure;Samples;Min_cycle;Max_cycle;Signal;HPM_P1;HPM_P2
2022/02/01 00:01:25;;;;;;;37.63;14.87;;;;;;;1.84;69.38;99398.28;1432530;90;21872;-89
2022/02/01 00:03:52;;;;;;;42.13;13.93;;;;;;;1.80;69.29;99397.20;1427167;91;21774;-89
2022/02/01 00:06:48;;;;;;;34.83;13.43;;;;;;;1.80;69.33;99401.13;1428472;91;21919;-86
2022/02/01 00:09:09;;;;;;;46.20;16.13;;;;;;;1.85;69.43;99397.34;1425357;91;21824;-88
2022/02/01 00:35:37;;;;;;;38.00;12.57;;;;;;;1.69;69.43;99395.06;1387334;94;23134;-87
2022/02/01 00:38:01;;;;;;;25.57;9.80;;;;;;;1.64;69.52;99407.16;1385470;94;21737;-87
2022/02/01 00:40:26;;;;;;;41.27;11.37;;;;;;;1.59;69.48;99406.67;1419468;90;21821;-87
2022/02/01 00:42:54;;;;;;;40.77;12.40;;;;;;;1.50;69.53;99406.89;1429694;91;21632;-89
2022/02/01 00:45:22;;;;;;;29.60;11.70;;;;;;;1.43;69.71;99407.45;1429178;91;21724;-88
2022/02/01 00:47:49;;;;;;;26.27;9.43;;;;;;;1.40;69.86;99410.29;1436629;91;21827;-89
2022/02/01 00:50:16;;;;;;;40.00;15.37;;;;;;;1.39;70.02;99407.34;1389677;92;22866;-88
2022/02/01 00:52:47;;;;;;;27.40;11.47;;;;;;;1.38;70.06;99411.69;1415746;92;21815;-88
2022/02/01 00:55:14;;;;;;;29.18;11.78;;;;;;;1.32;70.05;99402.58;1388364;94;22124;-88
2022/02/01 00:57:42;;;;;;;36.83;14.13;;;;;;;1.31;70.21;99411.33;1421900;90;21580;-88
2022/02/01 01:00:12;;;;;;;32.07;12.60;;;;;;;1.32;70.44;99412.15;1430912;90;22440;-88
2022/02/01 01:02:42;;;;;;;30.10;14.10;;;;;;;1.33;70.45;99413.36;1428670;91;21724;-88
2022/02/01 01:05:12;;;;;;;46.98;12.75;;;;;;;1.35;70.52;99408.87;1429743;91;21648;-89
2022/02/01 01:07:47;;;;;;;31.70;11.40;;;;;;;1.38;70.48;99410.87;1418808;91;22593;-87
2022/02/01 01:10:15;;;;;;;32.13;11.47;;;;;;;1.40;70.43;99410.29;1424481;91;22275;-88
2022/02/01 01:12:57;;;;;;;37.97;13.00;;;;;;;1.26;71.26;99417.82;1429368;91;21781;-88
2022/02/01 01:15:20;;;;;;;39.93;13.97;;;;;;;1.22;71.72;99417.23;1425002;91;21896;-88
2022/02/01 01:18:23;;;;;;;33.73;11.73;;;;;;;1.18;71.67;99411.89;1428021;91;22652;-87
2022/02/01 01:46:10;;;;;;;56.30;13.43;;;;;;;1.27;71.96;99383.84;1429650;90;22766;-85
2022/02/01 01:53:58;;;;;;;34.00;11.80;;;;;;;1.18;72.32;99391.04;1433081;90;23320;-86
2022/02/01 01:56:25;;;;;;;32.05;11.03;;;;;;;1.04;73.21;99386.01;1433197;91;21790;-87
2022/02/01 01:58:53;;;;;;;35.93;12.00;;;;;;;0.99;73.01;99388.94;1430689;91;21486;-90
2022/02/01 02:01:20;;;;;;;33.77;12.17;;;;;;;0.98;73.58;99393.80;1415114;92;21742;-86
2022/02/01 02:03:49;;;;;;;31.07;12.37;;;;;;;0.86;74.79;99400.73;1432185;90;21812;-88
2022/02/01 02:06:18;;;;;;;29.20;10.90;;;;;;;0.87;74.33;99398.48;1407550;92;22258;-86
2022/02/01 02:09:12;;;;;;;37.00;15.07;;;;;;;0.86;74.57;99398.13;1429712;89;22120;-86
2022/02/01 02:14:29;;;;;;;40.97;15.23;;;;;;;0.75;76.02;99404.58;1431659;91;21759;-87
2022/02/01 02:17:12;;;;;;;38.80;15.53;;;;;;;0.70;76.86;99401.47;1392159;94;23002;-87
2022/02/01 02:19:42;;;;;;;41.83;14.27;;;;;;;0.70;75.93;99400.17;1413762;92;21685;-87
2022/02/01 02:22:23;;;;;;;41.40;13.87;;;;;;;0.78;75.64;99404.36;1392017;94;21816;-86
2022/02/01 02:24:49;;;;;;;43.93;15.40;;;;;;;0.81;75.56;99409.34;1405923;92;21972;-86
2022/02/01 02:27:20;;;;;;;32.67;13.60;;;;;;;0.84;75.41;99413.03;1391126;94;21881;-87
2022/02/01 02:29:48;;;;;;;43.17;14.40;;;;;;;0.82;76.00;99414.08;1394548;94;21848;-87
2022/02/01 02:32:25;;;;;;;36.50;12.90;;;;;;;0.80;75.44;99412.05;1410471;92;21527;-91
2022/02/01 02:35:00;;;;;;;43.03;14.10;;;;;;;0.80;75.28;99405.06;1391105;94;21807;-90
2022/02/01 02:37:34;;;;;;;38.20;12.93;;;;;;;0.82;75.21;99407.09;1392302;94;21700;-89
2022/02/01 02:40:20;;;;;;;30.30;13.23;;;;;;;0.84;75.18;99408.30;1391881;94;21767;-89
2022/02/01 02:45:39;;;;;;;37.37;14.40;;;;;;;0.87;75.23;99413.28;1390130;94;21812;-89
2022/02/01 02:48:21;;;;;;;39.77;13.23;;;;;;;0.84;75.25;99407.00;1390907;94;21842;-89
2022/02/01 02:50:49;;;;;;;42.47;15.60;;;;;;;0.85;75.06;99415.98;1388180;92;21752;-89
2022/02/01 02:53:36;;;;;;;42.30;13.70;;;;;;;0.83;75.21;99417.03;1404916;92;22861;-90
2022/02/01 02:56:14;;;;;;;39.23;13.53;;;;;;;0.74;75.83;99427.64;1396485;93;21810;-90
2022/02/01 02:59:03;;;;;;;29.00;12.80;;;;;;;0.65;76.79;99434.81;1424144;90;21811;-91
2022/02/01 03:01:47;;;;;;;41.33;14.90;;;;;;;0.61;76.20;99428.17;1402039;92;21690;-86
2022/02/01 03:04:28;;;;;;;36.97;15.37;;;;;;;0.57;76.64;99421.50;1393468;93;22999;-88
2022/02/01 03:07:10;;;;;;;34.10;13.67;;;;;;;0.57;76.55;99428.01;1425695;91;22308;-88
2022/02/01 03:09:45;;;;;;;46.90;15.33;;;;;;;0.54;77.44;99433.44;1410921;92;21685;-89
2022/02/01 03:12:34;;;;;;;43.97;15.87;;;;;;;0.49;77.65;99431.17;1390977;92;21736;-90
2022/02/01 03:15:08;;;;;;;36.67;16.67;;;;;;;0.44;78.52;99428.87;1410621;92;21676;-91
2022/02/01 03:20:18;;;;;;;39.13;15.37;;;;;;;0.31;79.29;99442.38;1426341;91;21765;-90
2022/02/01 03:22:57;;;;;;;38.23;15.57;;;;;;;0.28;79.14;99440.46;1409778;92;21742;-91
2022/02/01 03:25:28;;;;;;;32.73;11.73;;;;;;;0.28;79.08;99432.66;1404697;93;21766;-89
2022/02/01 03:28:11;;;;;;;;;;;;;;;;;;;;;
2022/02/01 03:30:37;;;;;;;39.40;16.73;;;;;;;0.27;79.33;99440.94;1402507;93;21979;-91
2022/02/01 03:33:09;;;;;;;40.00;15.23;;;;;;;0.29;78.70;99447.32;1411487;92;22705;-89
2022/02/01 03:35:43;;;;;;;43.57;15.87;;;;;;;0.33;78.54;99446.19;1375093;93;21546;-91
2022/02/01 03:38:27;;;;;;;39.77;14.33;;;;;;;0.37;78.33;99449.75;1427809;91;21674;-91
2022/02/01 03:41:00;;;;;;;35.47;14.33;;;;;;;0.40;77.84;99454.78;1382168;94;23521;-91
2022/02/01 03:43:30;;;;;;;39.63;13.90;;;;;;;0.43;77.94;99453.70;1415657;92;21809;-90
2022/02/01 03:46:05;;;;;;;35.97;14.67;;;;;;;0.43;77.94;99457.16;1426607;92;23072;-88
2022/02/01 03:48:45;;;;;;;40.27;14.43;;;;;;;0.39;78.39;99460.91;1420362;92;21770;-91
2022/02/01 03:51:17;;;;;;;36.60;16.10;;;;;;;0.33;78.39;99467.84;1411401;92;21975;-88
2022/02/01 03:53:49;;;;;;;39.30;15.73;;;;;;;0.26;78.83;99475.72;1408056;92;23111;-90
2022/02/01 03:56:26;;;;;;;46.30;18.00;;;;;;;0.17;79.80;99475.88;1411235;92;21878;-91
2022/02/01 03:59:02;;;;;;;43.73;16.93;;;;;;;0.14;80.54;99477.36;1406713;92;21778;-89
2022/02/01 04:01:31;;;;;;;35.20;16.73;;;;;;;0.13;80.66;99478.31;1408960;92;21856;-88
2022/02/01 04:04:12;;;;;;;50.83;19.17;;;;;;;0.14;80.57;99481.27;1409371;92;21737;-88
2022/02/01 04:06:34;;;;;;;42.40;17.70;;;;;;;0.15;80.26;99487.33;1408374;92;21719;-90
2022/02/01 04:09:15;;;;;;;36.97;16.97;;;;;;;0.13;80.54;99485.29;1410073;92;21876;-89
2022/02/01 04:11:49;;;;;;;41.37;16.97;;;;;;;0.12;80.02;99490.97;1413206;91;21874;-87
2022/02/01 04:14:33;;;;;;;39.80;15.50;;;;;;;0.16;80.38;99488.98;1423868;90;21803;-88
2022/02/01 04:17:07;;;;;;;32.30;13.60;;;;;;;0.13;80.62;99490.50;1421623;91;21974;-88
2022/02/01 04:19:58;;;;;;;39.93;15.43;;;;;;;0.05;80.94;99494.91;1448375;89;22855;-89
2022/02/01 04:22:36;;;;;;;40.07;14.23;;;;;;;0.04;80.56;99503.66;1428872;90;22743;-89
2022/02/01 04:25:09;;;;;;;33.13;14.10;;;;;;;0.02;81.16;99513.33;1413852;92;22206;-92
2022/02/01 04:27:54;;;;;;;37.78;14.28;;;;;;;-0.02;81.37;99520.51;1445086;90;22236;-91
2022/02/01 04:30:30;;;;;;;35.63;14.07;;;;;;;-0.01;81.49;99526.54;1418536;92;21560;-91
2022/02/01 04:35:45;;;;;;;40.85;13.10;;;;;;;-0.10;82.35;99530.59;1411187;91;23215;-91
2022/02/01 04:38:21;;;;;;;34.00;12.03;;;;;;;-0.13;82.13;99534.69;1439586;89;21525;-88
2022/02/01 04:41:02;;;;;;;27.47;10.53;;;;;;;-0.14;81.98;99530.44;1423312;91;21546;-89
2022/02/01 04:43:45;;;;;;;30.23;10.38;;;;;;;-0.20;83.16;99542.98;1447283;90;22224;-89
2022/02/01 04:46:19;;;;;;;59.42;22.73;;;;;;;-0.18;82.77;99547.63;1418423;91;21568;-88
2022/02/01 04:48:59;;;;;;;29.00;11.33;;;;;;;-0.28;83.97;99551.31;1397103;92;21710;-88
2022/02/01 04:51:35;;;;;;;33.95;11.93;;;;;;;-0.35;84.39;99555.23;1432165;90;21694;-89
2022/02/01 04:54:08;;;;;;;26.95;10.93;;;;;;;-0.49;85.51;99553.08;1429073;91;21472;-89
2022/02/01 04:56:46;;;;;;;30.77;11.57;;;;;;;-0.52;85.53;99554.58;1445238;90;21567;-89
2022/02/01 04:59:21;;;;;;;31.17;11.03;;;;;;;-0.58;85.76;99566.64;1426483;91;22366;-90
2022/02/01 05:01:56;;;;;;;40.73;12.20;;;;;;;-0.63;86.10;99573.06;1426095;91;21508;-89
2022/02/01 05:04:26;;;;;;;36.40;12.90;;;;;;;-0.60;85.34;99576.79;1443278;90;21463;-89
2022/02/01 05:06:56;;;;;;;27.73;10.32;;;;;;;-0.60;85.27;99571.12;1442553;90;21537;-89
2022/02/01 05:09:30;;;;;;;38.33;12.60;;;;;;;-0.62;85.69;99578.17;1437190;90;21626;-89
2022/02/01 05:12:03;;;;;;;34.48;11.78;;;;;;;-0.72;86.66;99580.53;1424022;91;21464;-88
2022/02/01 05:14:42;;;;;;;26.68;11.00;;;;;;;-0.78;86.87;99581.36;1443692;90;22469;-90
2022/02/01 05:17:15;;;;;;;43.40;14.00;;;;;;;-0.80;87.64;99578.88;1426815;91;21716;-89
2022/02/01 05:19:57;;;;;;;45.08;13.83;;;;;;;-0.81;87.52;99587.58;1443483;90;22511;-89
2022/02/01 05:22:31;;;;;;;36.28;15.45;;;;;;;-0.84;88.06;99598.63;1446039;90;22454;-88
2022/02/01 05:24:59;;;;;;;36.63;12.90;;;;;;;-0.83;87.91;99596.43;1438170;90;21565;-87
2022/02/01 05:27:28;;;;;;;39.85;13.20;;;;;;;-0.87;88.54;99592.33;1441996;90;21666;-87
2022/02/01 05:29:57;;;;;;;37.88;16.10;;;;;;;-0.91;88.60;99605.52;1428554;90;21745;-88
2022/02/01 05:32:25;;;;;;;52.43;19.67;;;;;;;-0.90;88.40;99610.23;1418961;92;21449;-88
2022/02/01 05:34:55;;;;;;;40.33;15.23;;;;;;;-0.86;87.77;99622.13;1400399;92;21620;-88
2022/02/01 05:37:23;;;;;;;44.85;18.00;;;;;;;-0.86;87.99;99634.26;1415907;92;21554;-87
2022/02/01 05:39:50;;;;;;;47.67;17.75;;;;;;;-0.84;87.31;99631.11;1394252;93;21455;-87
2022/02/01 05:42:23;;;;;;;40.98;17.12;;;;;;;-0.89;87.82;99627.52;1387383;93;22124;-87
2022/02/01 05:44:47;;;;;;;34.70;13.90;;;;;;;-0.91;87.88;99627.59;1398469;93;23582;-87
2022/02/01 05:47:15;;;;;;;45.48;17.42;;;;;;;-0.97;88.23;99627.98;1391450;93;21487;-88
2022/02/01 05:49:43;;;;;;;41.25;17.37;;;;;;;-1.03;88.88;99637.45;1420261;92;21486;-86
2022/02/01 05:52:11;;;;;;;52.67;19.37;;;;;;;-1.04;88.50;99638.35;1418468;91;21546;-89
2022/02/01 05:54:38;;;;;;;53.60;23.15;;;;;;;-1.03;87.82;99642.64;1451426;90;23634;-89
2022/02/01 05:57:08;;;;;;;48.38;22.02;;;;;;;-1.08;88.88;99644.67;1428895;90;21557;-87
2022/02/01 05:59:37;;;;;;;65.00;28.52;;;;;;;-1.07;88.21;99645.03;1457931;89;22154;-88
2022/02/01 06:02:06;;;;;;;66.95;27.73;;;;;;;-1.01;87.06;99644.66;1444972;90;21628;-90
2022/02/01 06:04:34;;;;;;;51.18;20.97;;;;;;;-0.97;86.80;99647.92;1453045;89;21484;-88
2022/02/01 06:07:01;;;;;;;58.90;22.60;;;;;;;-0.97;86.86;99651.36;1448161;90;21469;-88
2022/02/01 06:09:28;;;;;;;65.80;27.30;;;;;;;-0.93;86.06;99660.61;1448727;89;21610;-88
2022/02/01 06:11:55;;;;;;;80.35;34.75;;;;;;;-0.90;85.86;99660.90;1448254;89;21591;-88
2022/02/01 06:14:22;;;;;;;78.55;33.95;;;;;;;-0.88;85.73;99666.84;1450904;89;21689;-87
2022/02/01 06:16:49;;;;;;;83.35;33.25;;;;;;;-0.86;85.43;99670.19;1448259;90;22482;-87
2022/02/01 06:19:16;;;;;;;70.75;27.73;;;;;;;-0.83;85.45;99671.77;1450769;89;22531;-86
2022/02/01 06:21:43;;;;;;;51.70;23.73;;;;;;;-0.84;85.68;99667.48;1449259;89;22386;-87
2022/02/01 06:24:14;;;;;;;61.08;24.23;;;;;;;-0.81;85.21;99673.79;1452224;89;21539;-88
2022/02/01 06:26:39;;;;;;;69.97;29.27;;;;;;;-0.87;85.68;99680.66;1441430;90;21602;-87
2022/02/01 06:29:06;;;;;;;59.85;22.85;;;;;;;-0.88;85.44;99679.00;1453676;89;21610;-88
2022/02/01 06:31:33;;;;;;;62.30;22.93;;;;;;;-0.87;85.12;99685.86;1451826;89;21566;-87
2022/02/01 06:34:00;;;;;;;54.40;21.65;;;;;;;-0.88;84.87;99687.63;1441054;89;22026;-87
2022/02/01 06:36:27;;;;;;;42.95;21.10;;;;;;;-0.88;85.13;99697.19;1449180;90;21553;-87
2022/02/01 06:38:55;;;;;;;56.18;21.82;;;;;;;-0.89;84.99;99700.26;1455711;90;21566;-86
2022/02/01 06:41:22;;;;;;;49.77;24.75;;;;;;;-0.87;84.64;99707.94;1446354;90;22710;-86
2022/02/01 06:43:49;;;;;;;41.68;18.92;;;;;;;-0.85;84.94;99712.59;1447800;90;21529;-87
2022/02/01 06:46:16;;;;;;;57.30;19.42;;;;;;;-0.89;85.50;99708.48;1449757;90;21528;-88
2022/02/01 06:48:43;;;;;;;52.60;21.95;;;;;;;-0.97;86.35;99708.50;1447688;90;21565;-87
2022/02/01 06:51:12;;;;;;;41.20;15.60;;;;;;;-1.04;86.35;99712.37;1445517;89;21558;-87
2022/02/01 06:53:44;;;;;;;51.15;17.73;;;;;;;-1.13;87.24;99722.02;1427258;91;21439;-87
2022/02/01 06:56:12;;;;;;;37.25;15.75;;;;;;;-1.19;87.98;99721.91;1429533;91;22807;-88
2022/02/01 06:58:37;;;;;;;56.65;19.87;;;;;;;-1.22;88.44;99729.05;1442078;91;21563;-90
2022/02/01 07:01:04;;;;;;;50.35;19.95;;;;;;;-1.23;88.38;99724.80;1435477;90;22385;-90
2022/02/01 07:03:32;;;;;;;43.02;18.62;;;;;;;-1.27;89.04;99721.99;1432542;91;22427;-86
2022/02/01 07:05:59;;;;;;;52.70;20.43;;;;;;;-1.28;89.01;99726.82;1433497;91;21336;-86
2022/02/01 07:08:27;;;;;;;59.30;21.10;;;;;;;-1.29;88.83;99733.78;1431990;91;21527;-85
2022/02/01 07:10:54;;;;;;;45.67;19.07;;;;;;;-1.25;88.44;99735.73;1425616;91;22332;-85
2022/02/01 07:13:21;;;;;;;47.13;20.32;;;;;;;-1.24;88.59;99737.39;1432928;91;21470;-85
2022/02/01 07:15:48;;;;;;;50.10;21.97;;;;;;;-1.16;87.43;99740.38;1432199;91;21638;-85
2022/02/01 07:18:15;;;;;;;57.78;22.62;;;;;;;-1.07;86.98;99745.49;1421894;91;21538;-86
2022/02/01 07:20:42;;;;;;;48.48;20.95;;;;;;;-1.01;86.52;99756.34;1431915;91;21407;-85
2022/02/01 07:23:12;;;;;;;39.03;17.32;;;;;;;-0.97;86.27;99756.56;1421814;91;21549;-85
2022/02/01 07:25:56;;;;;;;52.93;19.15;;;;;;;-0.92;86.05;99757.13;1434157;91;21327;-86
2022/02/01 07:28:27;;;;;;;43.60;21.73;;;;;;;-0.97;86.24;99763.05;1432082;91;21519;-86
2022/02/01 07:30:55;;;;;;;39.58;15.40;;;;;;;-1.01;86.62;99769.33;1434408;91;21416;-85
2022/02/01 07:33:24;;;;;;;52.23;21.27;;;;;;;-1.02;86.12;99773.34;1432990;91;21629;-85
2022/02/01 07:35:52;;;;;;;55.10;20.32;;;;;;;-1.01;86.22;99777.12;1427137;91;21548;-84
2022/02/01 07:38:22;;;;;;;40.78;19.32;;;;;;;-1.06;86.75;99781.78;1439319;91;21571;-86
2022/02/01 07:40:52;;;;;;;40.98;18.92;;;;;;;-1.10;87.15;99778.97;1439115;91;21655;-87
2022/02/01 07:43:20;;;;;;;54.05;20.12;;;;;;;-1.20;88.13;99783.88;1407372;91;21555;-85
2022/02/01 07:45:50;;;;;;;46.18;19.70;;;;;;;-1.16;87.94;99785.35;1438941;91;21436;-94
2022/02/01 07:48:17;;;;;;;49.23;20.80;;;;;;;-1.06;87.62;99783.08;1434188;91;21415;-92
2022/02/01 07:50:45;;;;;;;45.75;21.12;;;;;;;-0.92;87.06;99788.30;1444527;91;21511;-91
2022/02/01 07:53:12;;;;;;;48.63;21.45;;;;;;;-0.78;86.66;99799.62;1445259;89;22333;-92
2022/02/01 07:55:39;;;;;;;41.00;19.27;;;;;;;-0.60;86.54;99802.45;1434281;90;21424;-93
2022/02/01 07:58:07;;;;;;;61.95;23.50;;;;;;;-0.41;86.06;99801.33;1436876;90;21356;-91
2022/02/01 08:00:34;;;;;;;52.65;21.57;;;;;;;-0.23;85.69;99810.63;1415858;90;21474;-91
2022/02/01 08:03:01;;;;;;;48.95;19.80;;;;;;;-0.05;85.40;99813.84;1422581;90;21482;-92
2022/02/01 08:05:31;;;;;;;68.37;20.83;;;;;;;0.07;84.45;99812.25;1442144;90;22421;-92
2022/02/01 08:08:01;;;;;;;138.47;47.62;;;;;;;0.07;83.74;99817.45;1439943;90;21605;-90
2022/02/01 08:10:38;;;;;;;51.03;19.67;;;;;;;0.05;83.57;99824.51;1449028;89;22324;-93
2022/02/01 08:18:32;;;;;;;74.57;30.00;;;;;;;0.26;82.82;99819.28;1435896;90;21603;-93
2022/02/01 08:20:57;;;;;;;80.73;28.20;;;;;;;0.31;82.42;99825.47;1444029;90;23009;-92
2022/02/01 08:23:23;;;;;;;41.13;19.07;;;;;;;0.39;82.05;99814.11;1446671;90;21665;-93
2022/02/01 08:25:51;;;;;;;107.17;40.27;;;;;;;0.44;81.42;99817.27;1416818;90;21791;-92
2022/02/01 08:28:20;;;;;;;48.93;18.13;;;;;;;0.62;81.97;99811.34;1435710;89;21885;-86
2022/02/01 08:30:53;;;;;;;102.87;38.30;;;;;;;0.74;80.39;99810.53;1437545;90;21592;-84
2022/02/01 08:33:22;;;;;;;57.70;23.77;;;;;;;0.80;80.52;99808.83;1429869;90;22511;-86
2022/02/01 08:35:50;;;;;;;49.43;22.03;;;;;;;0.83;80.06;99812.53;1444648;90;21678;-86
2022/02/01 08:38:18;;;;;;;69.13;26.87;;;;;;;0.90;79.79;99795.57;1439020;90;21474;-86
2022/02/01 08:40:48;;;;;;;49.93;20.43;;;;;;;0.96;79.26;99800.84;1444563;90;21482;-86
2022/02/01 08:43:17;;;;;;;48.80;20.77;;;;;;;0.95;79.42;99800.49;1436698;90;22452;-86
2022/02/01 08:45:47;;;;;;;65.80;30.53;;;;;;;1.13;79.81;99799.25;1440928;90;21556;-86
2022/02/01 08:48:14;;;;;;;175.37;73.70;;;;;;;1.32;79.86;99800.17;1445061;90;21541;-86
2022/02/01 08:50:41;;;;;;;68.33;28.47;;;;;;;1.55;79.62;99799.91;1435217;90;22134;-85
2022/02/01 08:53:16;;;;;;;144.93;55.57;;;;;;;1.72;78.52;99796.58;1433969;88;21860;-86
2022/02/01 08:55:49;;;;;;;60.97;23.50;;;;;;;1.94;78.24;99810.27;1437346;90;21665;-85
2022/02/01 08:58:07;;;;;;;100.53;34.97;;;;;;;2.02;74.94;99804.88;1431696;90;21696;-85
2022/02/01 09:00:35;;;;;;;364.17;128.73;;;;;;;2.09;75.93;99798.74;1439118;90;21679;-85
2022/02/01 09:03:05;;;;;;;74.73;25.90;;;;;;;2.29;76.29;99805.16;1436815;90;21618;-85
2022/02/01 09:05:33;;;;;;;86.93;30.37;;;;;;;2.46;74.74;99798.72;1435040;90;21587;-85
2022/02/01 09:08:01;;;;;;;54.80;19.83;;;;;;;2.55;73.12;99809.80;1428551;90;21607;-95
2022/02/01 09:10:31;;;;;;;60.97;22.93;;;;;;;2.59;74.02;99813.02;1441175;90;21638;-93
2022/02/01 09:12:59;;;;;;;51.03;18.80;;;;;;;2.69;75.27;99818.78;1441521;90;21828;-95
2022/02/01 09:15:28;;;;;;;62.10;25.60;;;;;;;2.90;76.33;99822.06;1439970;90;23110;-93
2022/02/01 09:17:58;;;;;;;50.03;20.27;;;;;;;3.01;72.15;99833.87;1423059;90;21854;-85
2022/02/01 09:20:27;;;;;;;101.80;41.65;;;;;;;3.15;71.81;99827.14;1437393;90;21865;-87
2022/02/01 09:22:54;;;;;;;105.13;38.13;;;;;;;3.15;71.81;99827.14;1441482;90;21467;-87
2022/02/01 09:25:21;;;;;;;38.07;15.70;;;;;;;3.24;68.27;99853.55;1444542;90;22056;-89
2022/02/01 09:27:50;;;;;;;37.73;16.00;;;;;;;3.24;68.27;99853.55;1438227;90;23129;-87
2022/02/01 09:30:20;;;;;;;99.83;41.93;;;;;;;3.71;70.93;99846.49;1443226;90;22005;-87
2022/02/01 09:32:47;;;;;;;53.27;20.80;;;;;;;3.71;70.93;99846.49;1410682;90;22100;-87
2022/02/01 09:35:15;;;;;;;56.57;21.37;;;;;;;3.91;70.28;99844.47;1416970;90;23308;-88
2022/02/01 09:37:42;;;;;;;78.00;30.33;;;;;;;4.04;67.85;99842.58;1431947;90;22284;-87
2022/02/01 09:40:10;;;;;;;50.20;21.13;;;;;;;4.21;66.98;99848.29;1430255;90;22238;-87
2022/02/01 09:46:38;;;;;;;155.77;71.30;;;;;;;5.60;66.39;99845.22;1429781;89;21488;-87
2022/02/01 09:49:15;;;;;;;68.67;26.03;;;;;;;6.77;62.19;99835.45;1434637;90;22160;-87
2022/02/01 09:51:44;;;;;;;59.13;28.33;;;;;;;7.22;55.72;99837.98;1415785;90;22424;-87
2022/02/01 09:54:31;;;;;;;74.40;35.43;;;;;;;7.64;56.03;99841.09;1419192;88;21663;-87
2022/02/01 09:57:07;;;;;;;62.87;27.90;;;;;;;7.82;55.94;99839.03;1413869;91;21317;-87
2022/02/01 09:59:52;;;;;;;58.90;25.80;;;;;;;8.24;54.21;99837.27;1421413;91;21578;-86
2022/02/01 10:02:20;;;;;;;51.67;21.70;;;;;;;8.63;55.71;99843.17;1397647;92;21397;-88
2022/02/01 10:05:10;;;;;;;40.63;18.53;;;;;;;8.95;52.64;99838.70;1417524;91;21456;-87
2022/02/01 10:07:56;;;;;;;38.83;15.83;;;;;;;9.30;52.90;99838.81;1406878;92;21374;-88
2022/02/01 10:10:29;;;;;;;43.87;21.20;;;;;;;9.31;52.91;99838.64;1385890;93;22603;-88
2022/02/01 10:13:17;;;;;;;38.50;16.83;;;;;;;9.35;51.05;99830.77;1379519;94;22524;-87
2022/02/01 10:16:12;;;;;;;43.00;19.80;;;;;;;9.51;52.36;99827.39;1391238;93;21399;-87
2022/02/01 10:18:38;;;;;;;33.87;15.90;;;;;;;9.91;51.95;99841.33;1411400;91;21561;-88
2022/02/01 10:21:27;;;;;;;43.03;14.00;;;;;;;10.18;51.96;99844.75;1416193;90;21524;-87
2022/02/01 10:24:06;;;;;;;36.70;12.80;;;;;;;10.01;48.24;99841.23;1415618;91;21445;-87
2022/02/01 10:26:34;;;;;;;43.67;18.60;;;;;;;9.29;46.78;99834.00;1433507;91;21339;-87
2022/02/01 10:29:05;;;;;;;33.97;13.53;;;;;;;9.27;48.52;99842.59;1429167;91;21376;-87
2022/02/01 10:31:42;;;;;;;37.45;12.80;;;;;;;9.03;46.53;99840.09;1427748;91;21465;-88
2022/02/01 10:37:19;;;;;;;45.30;20.10;;;;;;;9.34;49.27;99847.58;1430253;90;21619;-89
2022/02/01 10:39:56;;;;;;;48.93;20.33;;;;;;;9.45;47.78;99835.45;1429861;90;22411;-89
2022/02/01 10:42:26;;;;;;;44.63;20.77;;;;;;;9.82;48.10;99827.75;1409287;91;22107;-91
2022/02/01 10:45:15;;;;;;;35.05;14.45;;;;;;;10.18;49.63;99834.17;1406009;91;22519;-88
2022/02/01 10:47:48;;;;;;;34.57;13.77;;;;;;;10.25;47.79;99828.59;1414780;91;21504;-88
2022/02/01 10:50:18;;;;;;;41.63;15.87;;;;;;;10.23;45.14;99830.56;1424503;90;21376;-89
2022/02/01 10:52:50;;;;;;;29.57;9.98;;;;;;;10.35;48.01;99823.20;1421680;91;21376;-88
2022/02/01 10:55:20;;;;;;;35.53;11.37;;;;;;;9.73;43.63;99819.45;1423229;91;22185;-88
2022/02/01 10:57:49;;;;;;;27.70;10.70;;;;;;;8.83;46.26;99831.14;1428934;91;21409;-86
2022/02/01 11:00:20;;;;;;;30.27;10.30;;;;;;;8.22;47.32;99820.76;1428446;91;21398;-87
2022/02/01 11:02:47;;;;;;;32.98;12.18;;;;;;;7.57;48.63;99826.86;1420483;91;21430;-87
2022/02/01 11:05:18;;;;;;;19.47;8.83;;;;;;;7.46;49.76;99824.38;1421440;90;21545;-86
2022/02/01 11:07:52;;;;;;;26.12;10.70;;;;;;;6.91;50.25;99820.23;1432596;91;21585;-87
2022/02/01 11:10:19;;;;;;;28.10;10.87;;;;;;;6.80;51.18;99823.00;1433621;91;21474;-88
2022/02/01 11:12:46;;;;;;;31.30;12.93;;;;;;;6.60;51.64;99820.84;1433266;90;22377;-87
2022/02/01 11:15:23;;;;;;;30.73;11.73;;;;;;;6.94;52.38;99812.06;1432360;90;21511;-87
2022/02/01 11:17:52;;;;;;;24.33;11.43;;;;;;;6.73;52.61;99823.55;1495542;91;21327;-88
2022/02/01 11:20:30;;;;;;;33.80;10.90;;;;;;;7.11;52.80;99817.94;1360090;90;21261;-87
2022/02/01 11:23:22;;;;;;;35.40;14.13;;;;;;;7.43;50.91;99811.51;1401927;91;21997;-87
2022/02/01 11:25:57;;;;;;;54.37;28.77;;;;;;;7.51;52.06;99809.00;1370292;91;22443;-86
2022/02/01 11:29:01;;;;;;;27.43;11.33;;;;;;;7.73;51.84;99814.88;1433029;91;21519;-86
2022/02/01 11:31:15;;;;;;;27.90;12.03;;;;;;;7.61;51.22;99812.41;1431902;91;21422;-86
2022/02/01 11:33:45;;;;;;;26.50;11.23;;;;;;;6.75;53.13;99812.39;1432829;91;21393;-87
2022/02/01 11:36:14;;;;;;;25.57;11.97;;;;;;;6.23;54.46;99814.40;1431776;91;22414;-87
2022/02/01 11:38:58;;;;;;;28.27;11.77;;;;;;;6.13;54.87;99816.19;1435608;91;22925;-86
2022/02/01 11:41:36;;;;;;;26.67;12.30;;;;;;;6.29;54.99;99820.42;1433485;91;21376;-87
2022/02/01 11:44:13;;;;;;;24.30;11.40;;;;;;;6.37;55.02;99823.70;1434893;91;21630;-87
2022/02/01 11:47:19;;;;;;;36.70;17.87;;;;;;;6.36;54.77;99826.45;1415689;91;22073;-86
2022/02/01 11:50:03;;;;;;;30.53;13.77;;;;;;;6.25;54.18;99819.53;1437134;91;21415;-86
2022/02/01 11:52:36;;;;;;;23.43;11.80;;;;;;;6.14;54.61;99829.66;1427423;91;21607;-85
2022/02/01 11:55:07;;;;;;;25.27;13.07;;;;;;;6.00;54.77;99821.66;1461132;89;21512;-87
2022/02/01 11:57:42;;;;;;;25.23;10.83;;;;;;;5.91;54.75;99819.80;1472045;89;21380;-87
2022/02/01 12:00:18;;;;;;;28.13;11.87;;;;;;;5.80;54.89;99822.52;1463893;89;21498;-88
2022/02/01 12:02:53;;;;;;;25.93;12.90;;;;;;;5.77;54.83;99817.05;1462352;89;21535;-86
2022/02/01 12:05:28;;;;;;;27.83;11.20;;;;;;;5.76;55.30;99818.51;1464769;89;21394;-86
2022/02/01 12:08:07;;;;;;;21.97;9.10;;;;;;;5.71;54.73;99818.89;1396283;90;21426;-87
2022/02/01 12:10:44;;;;;;;21.27;9.48;;;;;;;5.34;54.63;99815.44;1438347;90;21434;-87
2022/02/01 12:13:17;;;;;;;23.67;10.33;;;;;;;4.80;56.08;99828.23;1437944;90;21887;-86
2022/02/01 12:15:47;;;;;;;25.37;8.17;;;;;;;4.62;57.08;99823.18;1437710;90;21598;-87
2022/02/01 12:18:41;;;;;;;19.73;9.30;;;;;;;4.50;57.92;99827.14;1421315;90;21585;-87
2022/02/01 12:21:37;;;;;;;25.73;10.97;;;;;;;4.67;57.49;99828.41;1438942;90;21552;-87
2022/02/01 12:24:05;;;;;;;22.23;9.10;;;;;;;5.20;55.86;99811.83;1420067;90;22300;-87
2022/02/01 12:26:39;;;;;;;20.70;9.03;;;;;;;5.61;54.82;99807.49;1438192;90;21450;-87
2022/02/01 12:29:10;;;;;;;23.07;9.43;;;;;;;5.97;53.14;99813.22;1437589;90;22477;-87
2022/02/01 12:31:42;;;;;;;16.47;8.83;;;;;;;6.62;52.95;99801.33;1431621;90;21546;-87
2022/02/01 12:34:15;;;;;;;18.27;8.20;;;;;;;7.06;49.57;99799.59;1452247;90;21228;-87
2022/02/01 12:36:49;;;;;;;24.13;10.33;;;;;;;7.32;49.51;99803.28;1510928;90;21342;-87
2022/02/01 12:39:30;;;;;;;20.63;8.43;;;;;;;8.06;51.93;99802.95;1416892;91;21400;-87
2022/02/01 12:42:11;;;;;;;16.80;8.30;;;;;;;8.34;45.85;99803.75;1423630;91;21513;-87
2022/02/01 12:47:06;;;;;;;19.33;8.60;;;;;;;8.36;45.30;99803.12;1478621;91;22341;-88
2022/02/01 12:49:47;;;;;;;;;;;;;;;8.44;45.48;99802.42;1373167;91;21299;-88
2022/02/01 12:52:28;;;;;;;15.67;7.57;;;;;;;8.27;44.55;99806.65;1524404;90;20352;-88
2022/02/01 12:55:12;;;;;;;17.33;7.70;;;;;;;8.44;45.82;99811.16;1462777;90;21546;-89
2022/02/01 12:57:42;;;;;;;21.20;7.93;;;;;;;8.24;43.68;99814.36;1420786;90;21395;-88
2022/02/01 13:00:17;;;;;;;20.68;8.05;;;;;;;8.59;45.61;99808.33;1434382;91;22356;-89
2022/02/01 13:02:45;;;;;;;12.87;7.00;;;;;;;9.05;46.45;99812.20;1431986;91;21410;-88
2022/02/01 13:05:17;;;;;;;15.73;7.30;;;;;;;8.66;42.94;99815.64;1432842;91;21456;-93
2022/02/01 13:21:24;;;;;;;15.97;8.40;;;;;;;9.03;43.70;99818.98;1538065;89;21191;-87
2022/02/01 13:23:59;;;;;;;16.27;8.33;;;;;;;8.86;42.65;99815.00;1439063;90;21269;-86